createdAt,value
2016-08-15T00:00:23.655Z,62.38
2016-08-15T00:01:23.634Z,62.38
2016-08-15T00:02:23.617Z,62.57
2016-08-15T00:03:23.602Z,61.8
2016-08-15T00:04:23.584Z,61.8
2016-08-15T00:05:23.566Z,62.66
2016-08-15T00:06:22.852Z,61.71
2016-08-15T00:07:23.536Z,62.48
2016-08-15T00:08:23.517Z,61.71
2016-08-15T00:09:23.502Z,62.57
2016-08-15T00:10:23.489Z,61.71
2016-08-15T00:11:23.473Z,62.48
2016-08-15T00:12:23.458Z,61.9
2016-08-15T00:13:23.443Z,61.99
2016-08-15T00:14:23.431Z,61.99
2016-08-15T00:15:23.416Z,62.28
2016-08-15T00:16:23.391Z,62.28
2016-08-15T00:17:23.382Z,62.18
2016-08-15T00:18:23.361Z,61.99
2016-08-15T00:19:23.337Z,62.38
2016-08-15T00:20:23.327Z,62.38
2016-08-15T00:21:23.316Z,62.18
2016-08-15T00:22:22.588Z,62.28
2016-08-15T00:23:23.272Z,62.28
2016-08-15T00:24:23.258Z,61.9
2016-08-15T00:25:23.246Z,62.09
2016-08-15T00:26:23.227Z,62.28
2016-08-15T00:27:23.226Z,62.38
2016-08-15T00:28:23.196Z,62.57
2016-08-15T00:29:23.180Z,62.57
2016-08-15T00:30:23.161Z,62.76
2016-08-15T00:31:23.149Z,62.76
2016-08-15T00:32:22.417Z,62.76
2016-08-15T00:33:23.120Z,62.76
2016-08-15T00:34:23.099Z,62.66
2016-08-15T00:35:23.088Z,62.57
2016-08-15T00:36:23.064Z,62.57
2016-08-15T00:37:23.047Z,62.66
2016-08-15T00:38:23.033Z,62.66
2016-08-15T00:39:23.022Z,62.76
2016-08-15T00:40:23.003Z,62.66
2016-08-15T00:41:22.984Z,62.76
2016-08-15T00:42:22.962Z,62.57
2016-08-15T00:43:22.957Z,62.57
2016-08-15T00:44:22.931Z,62.76
2016-08-15T00:45:22.918Z,62.66
2016-08-15T00:46:22.921Z,62.86
2016-08-15T00:47:22.889Z,62.66
2016-08-15T00:48:22.872Z,62.57
2016-08-15T00:49:22.868Z,62.66
2016-08-15T00:50:22.835Z,62.66
2016-08-15T00:51:22.824Z,63.15
2016-08-15T00:52:22.802Z,62.76
2016-08-15T00:53:22.788Z,62.86
2016-08-15T00:54:22.770Z,62.28
2016-08-15T00:55:22.757Z,62.66
2016-08-15T00:56:22.742Z,62.76
2016-08-15T00:57:22.727Z,62.86
2016-08-15T00:58:22.709Z,62.76
2016-08-15T00:59:22.699Z,62.66
2016-08-15T01:00:21.967Z,62.76
2016-08-15T01:01:22.677Z,62.66
2016-08-15T01:02:22.643Z,62.28
2016-08-15T01:03:22.632Z,62.66
2016-08-15T01:04:22.611Z,62.66
2016-08-15T01:05:22.591Z,62.86
2016-08-15T01:06:22.581Z,62.28
2016-08-15T01:07:22.566Z,62.48
2016-08-15T01:08:22.548Z,62.48
2016-08-15T01:09:22.533Z,62.66
2016-08-15T01:10:22.518Z,62.76
2016-08-15T01:11:22.499Z,63.06
2016-08-15T01:12:22.480Z,62.76
2016-08-15T01:13:22.462Z,62.76
2016-08-15T01:14:22.455Z,63.06
2016-08-15T01:15:22.429Z,63.15
2016-08-15T01:16:22.424Z,63.06
2016-08-15T01:17:22.402Z,63.24
2016-08-15T01:18:22.387Z,62.86
2016-08-15T01:19:22.371Z,63.06
2016-08-15T01:20:22.354Z,62.86
2016-08-15T01:21:22.338Z,62.66
2016-08-15T01:22:22.321Z,62.57
2016-08-15T01:23:22.305Z,62.38
2016-08-15T01:24:22.289Z,62.48
2016-08-15T01:25:22.276Z,62.76
2016-08-15T01:26:22.258Z,62.57
2016-08-15T01:27:22.239Z,62.57
2016-08-15T01:28:22.225Z,62.48
2016-08-15T01:29:22.217Z,62.18
2016-08-15T01:30:22.193Z,62.66
2016-08-15T01:31:22.177Z,62.38
2016-08-15T01:32:22.165Z,62.28
2016-08-15T01:33:22.142Z,62.48
2016-08-15T01:34:22.127Z,63.06
2016-08-15T01:35:22.108Z,62.38
2016-08-15T01:36:22.091Z,62.57
2016-08-15T01:37:22.079Z,62.48
2016-08-15T01:38:22.060Z,62.66
2016-08-15T01:39:22.049Z,62.48
2016-08-15T01:40:22.026Z,63.06
2016-08-15T01:41:21.304Z,62.38
2016-08-15T01:42:22.000Z,62.48
2016-08-15T01:43:21.982Z,62.48
2016-08-15T01:44:21.961Z,62.66
2016-08-15T01:45:21.945Z,62.66
2016-08-15T01:46:21.932Z,62.66
2016-08-15T01:47:21.921Z,62.76
2016-08-15T01:48:21.897Z,62.86
2016-08-15T01:49:21.888Z,62.76
2016-08-15T01:50:21.867Z,62.86
2016-08-15T01:51:21.847Z,62.86
2016-08-15T01:52:21.841Z,63.06
2016-08-15T01:53:21.815Z,62.66
2016-08-15T01:54:21.802Z,62.86
2016-08-15T01:55:21.782Z,62.86
2016-08-15T01:56:21.772Z,62.48
2016-08-15T01:57:21.755Z,62.96
2016-08-15T01:58:21.735Z,62.57
2016-08-15T01:59:21.722Z,62.28
2016-08-15T02:00:21.709Z,62.86
2016-08-15T02:01:21.686Z,62.96
2016-08-15T02:02:21.668Z,63.06
2016-08-15T02:03:20.951Z,62.86
2016-08-15T02:04:21.654Z,62.76
2016-08-15T02:05:21.629Z,62.57
2016-08-15T02:06:21.607Z,63.24
2016-08-15T02:07:21.589Z,63.15
2016-08-15T02:08:21.582Z,62.66
2016-08-15T02:09:21.565Z,62.96
2016-08-15T02:10:21.547Z,62.66
2016-08-15T02:11:21.535Z,62.76
2016-08-15T02:12:21.510Z,63.06
2016-08-15T02:13:21.492Z,62.86
2016-08-15T02:14:21.474Z,63.24
2016-08-15T02:15:21.459Z,62.66
2016-08-15T02:16:21.447Z,63.15
2016-08-15T02:17:21.431Z,62.57
2016-08-15T02:18:21.416Z,63.06
2016-08-15T02:19:20.693Z,63.06
2016-08-15T02:20:21.383Z,62.66
2016-08-15T02:21:21.378Z,63.15
2016-08-15T02:22:21.352Z,62.96
2016-08-15T02:23:21.333Z,63.06
2016-08-15T02:24:21.318Z,62.7
2016-08-15T02:25:21.300Z,62.96
2016-08-15T02:26:20.579Z,62.66
2016-08-15T02:27:21.274Z,62.76
2016-08-15T02:28:21.258Z,62.86
2016-08-15T02:29:21.238Z,62.96
2016-08-15T02:30:21.220Z,62.76
2016-08-15T02:31:21.200Z,63.24
2016-08-15T02:32:21.189Z,62.76
2016-08-15T02:33:21.185Z,63.06
2016-08-15T02:34:21.155Z,62.66
2016-08-15T02:35:21.144Z,62.86
2016-08-15T02:36:21.125Z,63.06
2016-08-15T02:37:21.109Z,63.06
2016-08-15T02:38:21.091Z,63.06
2016-08-15T02:39:21.094Z,62.86
2016-08-15T02:40:21.058Z,62.66
2016-08-15T02:41:21.039Z,62.66
2016-08-15T02:42:21.029Z,62.96
2016-08-15T02:43:21.013Z,62.76
2016-08-15T02:44:21.001Z,62.89
2016-08-15T02:45:20.978Z,62.66
2016-08-15T02:46:20.963Z,62.7
2016-08-15T02:47:20.941Z,63.06
2016-08-15T02:48:20.928Z,63.06
2016-08-15T02:49:20.914Z,62.86
2016-08-15T02:50:20.901Z,62.79
2016-08-15T02:51:20.883Z,62.66
2016-08-15T02:52:20.866Z,63.15
2016-08-15T02:53:20.864Z,63.06
2016-08-15T02:54:20.827Z,62.96
2016-08-15T02:55:20.825Z,62.79
2016-08-15T02:56:20.801Z,62.7
2016-08-15T02:57:20.789Z,63.24
2016-08-15T02:58:20.768Z,62.66
2016-08-15T02:59:20.755Z,62.96
2016-08-15T03:00:20.736Z,62.96
2016-08-15T03:01:20.723Z,62.28
2016-08-15T03:02:20.699Z,62.57
2016-08-15T03:03:20.695Z,62.18
2016-08-15T03:04:20.673Z,62.66
2016-08-15T03:05:20.655Z,62.86
2016-08-15T03:06:20.638Z,63.15
2016-08-15T03:07:20.619Z,62.96
2016-08-15T03:08:20.615Z,62.96
2016-08-15T03:09:20.597Z,62.76
2016-08-15T03:10:20.584Z,62.86
2016-08-15T03:11:20.560Z,62.18
2016-08-15T03:12:20.547Z,62.66
2016-08-15T03:13:20.525Z,61.9
2016-08-15T03:14:20.518Z,62.38
2016-08-15T03:15:20.503Z,62.76
2016-08-15T03:16:20.482Z,62.76
2016-08-15T03:17:20.464Z,62.76
2016-08-15T03:18:20.446Z,62.76
2016-08-15T03:19:20.426Z,62.76
2016-08-15T03:20:20.411Z,62.57
2016-08-15T03:21:20.395Z,62.38
2016-08-15T03:22:20.381Z,62.38
2016-08-15T03:23:20.361Z,62.18
2016-08-15T03:24:20.351Z,62.28
2016-08-15T03:25:20.337Z,62.38
2016-08-15T03:26:20.321Z,62.57
2016-08-15T03:27:20.301Z,61.99
2016-08-15T03:28:20.279Z,62.76
2016-08-15T03:29:20.271Z,62.48
2016-08-15T03:30:20.251Z,63.06
2016-08-15T03:31:20.235Z,62.86
2016-08-15T03:32:20.229Z,62.66
2016-08-15T03:33:20.207Z,61.8
2016-08-15T03:34:20.222Z,62.86
2016-08-15T03:35:20.169Z,62.76
2016-08-15T03:36:20.154Z,62.38
2016-08-15T03:37:20.139Z,62.48
2016-08-15T03:38:20.125Z,62.57
2016-08-15T03:39:19.396Z,62.86
2016-08-15T03:40:20.101Z,61.9
2016-08-15T03:41:20.073Z,62.48
2016-08-15T03:42:20.060Z,62.48
2016-08-15T03:43:19.327Z,62.48
2016-08-15T03:44:20.020Z,62.57
2016-08-15T03:45:20.009Z,62.57
2016-08-15T03:46:19.988Z,62.28
2016-08-15T03:47:19.977Z,62.48
2016-08-15T03:48:19.958Z,62.48
2016-08-15T03:49:19.946Z,62.76
2016-08-15T03:50:19.929Z,62.57
2016-08-15T03:51:19.913Z,62.86
2016-08-15T03:52:19.890Z,62.86
2016-08-15T03:53:19.879Z,62.48
2016-08-15T03:54:19.867Z,62.48
2016-08-15T03:55:19.847Z,62.86
2016-08-15T03:56:19.833Z,62.38
2016-08-15T03:57:19.812Z,62.28
2016-08-15T03:58:19.796Z,62.76
2016-08-15T03:59:19.780Z,62.28
2016-08-15T04:00:19.769Z,62.28
2016-08-15T04:01:19.748Z,62.09
2016-08-15T04:02:19.743Z,62.38
2016-08-15T04:03:19.717Z,62.38
2016-08-15T04:04:19.702Z,62.18
2016-08-15T04:05:18.983Z,62.18
2016-08-15T04:06:18.966Z,62.57
2016-08-15T04:07:19.650Z,62.38
2016-08-15T04:08:19.637Z,62.57
2016-08-15T04:09:19.622Z,62.76
2016-08-15T04:10:19.614Z,62.18
2016-08-15T04:11:19.587Z,62.28
2016-08-15T04:12:19.571Z,62.09
2016-08-15T04:13:19.557Z,62.38
2016-08-15T04:14:19.532Z,62.66
2016-08-15T04:15:19.528Z,62.76
2016-08-15T04:16:19.508Z,62.38
2016-08-15T04:17:19.493Z,62.28
2016-08-15T04:18:19.472Z,62.48
2016-08-15T04:19:19.467Z,62.66
2016-08-15T04:20:19.452Z,62.57
2016-08-15T04:21:19.435Z,62.28
2016-08-15T04:22:19.412Z,62.76
2016-08-15T04:23:19.403Z,62.48
2016-08-15T04:24:19.379Z,62.38
2016-08-15T04:25:19.378Z,61.61
2016-08-15T04:26:19.349Z,62.57
2016-08-15T04:27:19.341Z,62.28
2016-08-15T04:28:19.315Z,62.66
2016-08-15T04:29:19.292Z,62.48
2016-08-15T04:30:19.280Z,62.57
2016-08-15T04:31:19.270Z,62.76
2016-08-15T04:32:19.246Z,62.48
2016-08-15T04:33:19.229Z,62.28
2016-08-15T04:34:19.236Z,62.09
2016-08-15T04:35:19.201Z,62.28
2016-08-15T04:36:18.476Z,62.09
2016-08-15T04:37:19.168Z,62.48
2016-08-15T04:38:19.149Z,62.57
2016-08-15T04:39:19.143Z,61.9
2016-08-15T04:40:19.116Z,62.38
2016-08-15T04:41:19.109Z,62.86
2016-08-15T04:42:19.085Z,62.28
2016-08-15T04:43:19.072Z,62.18
2016-08-15T04:44:18.341Z,62.66
2016-08-15T04:45:19.036Z,62.38
2016-08-15T04:46:19.021Z,62.48
2016-08-15T04:47:19.005Z,61.99
2016-08-15T04:48:18.992Z,62.09
2016-08-15T04:49:18.971Z,62.09
2016-08-15T04:50:18.968Z,62.38
2016-08-15T04:51:18.941Z,61.99
2016-08-15T04:52:18.926Z,62.28
2016-08-15T04:53:18.909Z,62.28
2016-08-15T04:54:18.892Z,61.8
2016-08-15T04:55:18.870Z,62.18
2016-08-15T04:56:18.147Z,62.28
2016-08-15T04:57:18.842Z,61.99
2016-08-15T04:58:18.831Z,61.8
2016-08-15T04:59:18.811Z,62.38
2016-08-15T05:00:18.801Z,61.32
2016-08-15T05:01:18.778Z,61.99
2016-08-15T05:02:18.760Z,61.9
2016-08-15T05:03:18.743Z,62.38
2016-08-15T05:04:18.733Z,61.9
2016-08-15T05:05:18.009Z,62.18
2016-08-15T05:06:18.696Z,62.48
2016-08-15T05:07:18.677Z,62.28
2016-08-15T05:08:18.663Z,61.9
2016-08-15T05:09:18.647Z,62.48
2016-08-15T05:10:18.629Z,61.8
2016-08-15T05:11:18.616Z,62.09
2016-08-15T05:12:18.596Z,62.28
2016-08-15T05:13:18.582Z,62.35
2016-08-15T05:14:18.568Z,62.54
2016-08-15T05:15:18.555Z,62.15
2016-08-15T05:16:18.530Z,62.73
2016-08-15T05:17:18.517Z,62.73
2016-08-15T05:18:18.503Z,62.15
2016-08-15T05:19:18.485Z,62.54
2016-08-15T05:20:18.468Z,62.63
2016-08-15T05:21:18.453Z,62.25
2016-08-15T05:22:18.436Z,62.73
2016-08-15T05:23:18.416Z,62.45
2016-08-15T05:24:18.402Z,62.63
2016-08-15T05:25:18.393Z,62.54
2016-08-15T05:26:18.375Z,62.83
2016-08-15T05:27:18.354Z,62.54
2016-08-15T05:28:17.630Z,62.73
2016-08-15T05:29:18.326Z,63.12
2016-08-15T05:30:18.308Z,63.12
2016-08-15T05:31:18.288Z,62.45
2016-08-15T05:32:18.271Z,62.48
2016-08-15T05:33:18.264Z,62.45
2016-08-15T05:34:18.240Z,62.48
2016-08-15T05:35:18.224Z,62.76
2016-08-15T05:36:18.211Z,62.28
2016-08-15T05:37:18.193Z,62.57
2016-08-15T05:38:18.174Z,62.66
2016-08-15T05:39:18.167Z,62.18
2016-08-15T05:40:18.144Z,62.18
2016-08-15T05:41:18.130Z,62.57
2016-08-15T05:42:17.425Z,62.09
2016-08-15T05:43:18.093Z,61.8
2016-08-15T05:44:18.076Z,62.38
2016-08-15T05:45:18.060Z,61.99
2016-08-15T05:46:18.044Z,62.18
2016-08-15T05:47:18.032Z,62.09
2016-08-15T05:48:18.016Z,62.57
2016-08-15T05:49:17.995Z,61.99
2016-08-15T05:50:17.982Z,62.28
2016-08-15T05:51:17.964Z,62.63
2016-08-15T05:52:17.947Z,62.73
2016-08-15T05:53:17.934Z,62.18
2016-08-15T05:54:17.914Z,62.25
2016-08-15T05:55:17.895Z,62.54
2016-08-15T05:56:17.880Z,62.86
2016-08-15T05:57:17.866Z,62.38
2016-08-15T05:58:17.850Z,62.09
2016-08-15T05:59:17.845Z,62.09
2016-08-15T06:00:17.813Z,62.38
2016-08-15T06:01:17.794Z,62.18
2016-08-15T06:02:17.778Z,61.96
2016-08-15T06:03:17.785Z,62.28
2016-08-15T06:04:17.756Z,62.15
2016-08-15T06:05:17.737Z,61.87
2016-08-15T06:06:17.718Z,62.15
2016-08-15T06:07:17.699Z,62.35
2016-08-15T06:08:17.686Z,62.54
2016-08-15T06:09:17.674Z,61.71
2016-08-15T06:10:17.657Z,61.87
2016-08-15T06:11:17.648Z,62.35
2016-08-15T06:12:17.623Z,62.06
2016-08-15T06:13:17.614Z,61.99
2016-08-15T06:14:17.587Z,62.38
2016-08-15T06:15:17.568Z,62.09
2016-08-15T06:16:17.561Z,61.87
2016-08-15T06:17:17.538Z,62.18
2016-08-15T06:18:17.520Z,62.15
2016-08-15T06:19:17.507Z,62.15
2016-08-15T06:20:17.497Z,62.15
2016-08-15T06:21:17.481Z,62.45
2016-08-15T06:22:17.463Z,62.83
2016-08-15T06:23:17.442Z,62.73
2016-08-15T06:24:17.431Z,63.02
2016-08-15T06:25:17.410Z,62.73
2016-08-15T06:26:17.392Z,62.25
2016-08-15T06:27:16.667Z,62.35
2016-08-15T06:28:17.360Z,62.54
2016-08-15T06:29:17.345Z,63.02
2016-08-15T06:30:17.327Z,62.99
2016-08-15T06:31:17.315Z,62.63
2016-08-15T06:32:17.293Z,62.73
2016-08-15T06:33:17.282Z,63.12
2016-08-15T06:34:17.261Z,63.12
2016-08-15T06:35:17.245Z,62.83
2016-08-15T06:36:17.226Z,62.54
2016-08-15T06:37:17.217Z,62.45
2016-08-15T06:38:17.196Z,62.63
2016-08-15T06:39:17.183Z,62.66
2016-08-15T06:40:17.165Z,62.76
2016-08-15T06:41:17.141Z,62.48
2016-08-15T06:42:16.426Z,62.09
2016-08-15T06:43:17.108Z,62.09
2016-08-15T06:44:17.099Z,61.9
2016-08-15T06:45:17.081Z,62.48
2016-08-15T06:46:17.076Z,62.63
2016-08-15T06:47:17.051Z,62.15
2016-08-15T06:48:17.027Z,63.02
2016-08-15T06:49:17.016Z,62.57
2016-08-15T06:50:16.994Z,61.9
2016-08-15T06:51:16.979Z,62.09
2016-08-15T06:52:16.965Z,62.63
2016-08-15T06:53:16.956Z,62.57
2016-08-15T06:54:16.930Z,62.28
2016-08-15T06:55:16.207Z,62.28
2016-08-15T06:56:16.903Z,62.18
2016-08-15T06:57:16.883Z,62.09
2016-08-15T06:58:16.869Z,62.28
2016-08-15T06:59:16.860Z,62.09
2016-08-15T07:00:16.840Z,61.8
2016-08-15T07:01:16.822Z,62.48
2016-08-15T07:02:16.803Z,62.09
2016-08-15T07:03:16.789Z,61.71
2016-08-15T07:04:16.777Z,62.38
2016-08-15T07:05:16.762Z,61.71
2016-08-15T07:06:16.737Z,62.18
2016-08-15T07:07:16.740Z,62.28
2016-08-15T07:08:16.702Z,61.9
2016-08-15T07:09:16.691Z,61.9
2016-08-15T07:10:17.672Z,61.71
2016-08-15T07:11:15.951Z,61.41
2016-08-15T07:12:16.641Z,61.9
2016-08-15T07:13:16.622Z,62.18
2016-08-15T07:14:16.615Z,61.71
2016-08-15T07:15:16.598Z,62.09
2016-08-15T07:16:16.573Z,61.8
2016-08-15T07:17:16.555Z,61.61
2016-08-15T07:18:16.541Z,61.61
2016-08-15T07:19:16.531Z,61.32
2016-08-15T07:20:16.508Z,61.32
2016-08-15T07:21:16.507Z,61.32
2016-08-15T07:22:16.479Z,61.22
2016-08-15T07:23:16.461Z,61.03
2016-08-15T07:24:15.736Z,61.41
2016-08-15T07:25:16.428Z,61.32
2016-08-15T07:26:16.428Z,61.61
2016-08-15T07:27:16.394Z,61.71
2016-08-15T07:28:15.673Z,61.61
2016-08-15T07:29:16.365Z,61.51
2016-08-15T07:30:16.351Z,61.22
2016-08-15T07:31:16.330Z,61.51
2016-08-15T07:32:16.321Z,61.03
2016-08-15T07:33:16.301Z,60.74
2016-08-15T07:34:16.286Z,61.13
2016-08-15T07:35:16.277Z,61.22
2016-08-15T07:36:16.297Z,61.03
2016-08-15T07:37:16.234Z,60.83
2016-08-15T07:38:16.243Z,60.93
2016-08-15T07:39:16.201Z,61.71
2016-08-15T07:40:16.184Z,61.32
2016-08-15T07:41:16.171Z,62.09
2016-08-15T07:42:16.151Z,61.99
2016-08-15T07:43:16.139Z,62.66
2016-08-15T07:44:16.132Z,63.06
2016-08-15T07:45:16.106Z,63.92
2016-08-15T07:46:16.086Z,63.34
2016-08-15T07:47:16.077Z,63.82
2016-08-15T07:48:16.057Z,63.82
2016-08-15T07:49:16.038Z,63.73
2016-08-15T07:50:16.019Z,63.73
2016-08-15T07:51:15.298Z,63.18
2016-08-15T07:52:15.992Z,63.34
2016-08-15T07:53:15.973Z,62.76
2016-08-15T07:54:15.247Z,63.44
2016-08-15T07:55:15.940Z,63.34
2016-08-15T07:56:15.929Z,63.28
2016-08-15T07:57:15.910Z,63.37
2016-08-15T07:58:15.891Z,63.47
2016-08-15T07:59:15.881Z,63.28
2016-08-15T08:00:15.864Z,62.89
2016-08-15T08:01:15.850Z,63.57
2016-08-15T08:02:15.840Z,63.57
2016-08-15T08:03:15.818Z,63.37
2016-08-15T08:04:15.793Z,63.09
2016-08-15T08:05:15.776Z,63.28
2016-08-15T08:06:15.769Z,63.28
2016-08-15T08:07:15.041Z,63.47
2016-08-15T08:08:15.740Z,63.18
2016-08-15T08:09:15.715Z,63.5
2016-08-15T08:10:14.991Z,63.37
2016-08-15T08:11:15.689Z,63.31
2016-08-15T08:12:15.668Z,63.5
2016-08-15T08:13:15.650Z,62.41
2016-08-15T08:14:15.641Z,62.51
2016-08-15T08:15:15.613Z,62.7
2016-08-15T08:16:15.602Z,61.44
2016-08-15T08:17:15.586Z,61.71
2016-08-15T08:18:15.573Z,61.51
2016-08-15T08:19:15.557Z,60.35
2016-08-15T08:20:15.549Z,60.8
2016-08-15T08:21:15.530Z,60.9
2016-08-15T08:22:15.522Z,60.61
2016-08-15T08:23:15.491Z,61.45
2016-08-15T08:24:15.473Z,60.9
2016-08-15T08:25:15.466Z,60.8
2016-08-15T08:26:15.439Z,58.97
2016-08-15T08:27:15.426Z,57.75
2016-08-15T08:28:15.405Z,57.17
2016-08-15T08:29:14.682Z,57.34
2016-08-15T08:30:15.377Z,57.14
2016-08-15T08:31:15.360Z,57.62
2016-08-15T08:32:15.339Z,57.53
2016-08-15T08:33:15.335Z,57.43
2016-08-15T08:34:15.311Z,57.92
2016-08-15T08:35:15.297Z,57.62
2016-08-15T08:36:15.286Z,58.62
2016-08-15T08:37:15.256Z,58.14
2016-08-15T08:38:15.243Z,57.17
2016-08-15T08:39:15.228Z,57.65
2016-08-15T08:40:15.217Z,57.72
2016-08-15T08:41:15.196Z,57.82
2016-08-15T08:42:14.468Z,57.65
2016-08-15T08:43:15.162Z,57.75
2016-08-15T08:44:15.146Z,58.04
2016-08-15T08:45:15.135Z,57.94
2016-08-15T08:46:15.116Z,58.14
2016-08-15T08:47:15.106Z,58.62
2016-08-15T08:48:15.079Z,57.94
2016-08-15T08:49:15.064Z,58.81
2016-08-15T08:50:15.054Z,58.81
2016-08-15T08:51:15.028Z,58.72
2016-08-15T08:52:15.010Z,58.72
2016-08-15T08:53:15.002Z,58.72
2016-08-15T08:54:14.988Z,58.62
2016-08-15T08:55:14.970Z,58.91
2016-08-15T08:56:14.950Z,58.62
2016-08-15T08:57:14.930Z,58.62
2016-08-15T08:58:14.921Z,58.65
2016-08-15T08:59:14.899Z,58.81
2016-08-15T09:00:14.883Z,58.72
2016-08-15T09:01:14.879Z,58.52
2016-08-15T09:02:14.850Z,58.72
2016-08-15T09:03:14.839Z,58.52
2016-08-15T09:04:14.818Z,58.72
2016-08-15T09:05:14.803Z,58.55
2016-08-15T09:06:14.808Z,58.75
2016-08-15T09:07:15.130Z,58.52
2016-08-15T09:08:14.751Z,58.52
2016-08-15T09:09:14.744Z,58.55
2016-08-15T09:10:14.720Z,58.36
2016-08-15T09:11:14.697Z,58.42
2016-08-15T09:12:14.696Z,58.72
2016-08-15T09:13:14.671Z,58.81
2016-08-15T09:14:14.656Z,58.94
2016-08-15T09:15:14.641Z,59
2016-08-15T09:16:14.624Z,58.91
2016-08-15T09:17:14.603Z,59.1
2016-08-15T09:18:14.588Z,59.23
2016-08-15T09:19:14.579Z,59.2
2016-08-15T09:20:14.562Z,58.84
2016-08-15T09:21:14.545Z,58.91
2016-08-15T09:22:14.531Z,58.94
2016-08-15T09:23:14.513Z,59.23
2016-08-15T09:24:14.491Z,58.84
2016-08-15T09:25:14.477Z,59.13
2016-08-15T09:26:14.463Z,59.23
2016-08-15T09:27:14.445Z,59.13
2016-08-15T09:28:14.426Z,59.23
2016-08-15T09:29:14.407Z,59.23
2016-08-15T09:30:14.399Z,59.42
2016-08-15T09:31:14.381Z,59.42
2016-08-15T09:32:14.364Z,59.52
2016-08-15T09:33:14.353Z,59.42
2016-08-15T09:34:14.326Z,59.23
2016-08-15T09:35:14.316Z,59.3
2016-08-15T09:36:14.297Z,59.42
2016-08-15T09:37:14.279Z,59.32
2016-08-15T09:38:14.269Z,59.03
2016-08-15T09:39:14.259Z,59.9
2016-08-15T09:40:14.237Z,59.9
2016-08-15T09:41:14.220Z,59.03
2016-08-15T09:42:14.202Z,59.23
2016-08-15T09:43:14.188Z,59.03
2016-08-15T09:44:14.163Z,59.03
2016-08-15T09:45:14.153Z,59.13
2016-08-15T09:46:14.142Z,59.13
2016-08-15T09:47:14.122Z,59.32
2016-08-15T09:48:13.413Z,59.23
2016-08-15T09:49:14.092Z,59.32
2016-08-15T09:50:14.072Z,59.03
2016-08-15T09:51:14.058Z,59.23
2016-08-15T09:52:14.038Z,59.61
2016-08-15T09:53:14.024Z,59.9
2016-08-15T09:54:14.012Z,59.52
2016-08-15T09:55:13.996Z,59.61
2016-08-15T09:56:13.982Z,56.04
2016-08-15T09:57:13.960Z,52.06
2016-08-15T09:58:13.943Z,52.52
2016-08-15T09:59:13.928Z,52.71
2016-08-15T10:00:13.915Z,53.87
2016-08-15T10:01:13.897Z,54.44
2016-08-15T10:02:13.880Z,54.44
2016-08-15T10:03:13.864Z,56.27
2016-08-15T10:04:13.857Z,55.73
2016-08-15T10:05:13.827Z,53.61
2016-08-15T10:06:13.815Z,53.13
2016-08-15T10:07:13.799Z,51.75
2016-08-15T10:08:13.777Z,51.94
2016-08-15T10:09:13.765Z,51.94
2016-08-15T10:10:13.749Z,52.78
2016-08-15T10:11:13.730Z,52.42
2016-08-15T10:12:13.712Z,52.71
2016-08-15T10:13:13.699Z,52.81
2016-08-15T10:14:13.680Z,53.58
2016-08-15T10:15:13.667Z,53.39
2016-08-15T10:16:13.644Z,53.8
2016-08-15T10:17:13.637Z,54.38
2016-08-15T10:18:13.620Z,54.09
2016-08-15T10:20:13.595Z,50.52
2016-08-15T10:21:12.856Z,50.81
2016-08-15T10:22:13.555Z,50.62
2016-08-15T10:23:13.529Z,50.52
2016-08-15T10:24:13.517Z,50.23
2016-08-15T10:25:13.497Z,50.23
2016-08-15T10:26:13.484Z,49.46
2016-08-15T10:27:13.465Z,49.27
2016-08-15T10:28:13.456Z,49.27
2016-08-15T10:29:13.434Z,49.27
2016-08-15T10:30:13.411Z,49.27
2016-08-15T10:31:13.410Z,49.46
2016-08-15T10:32:13.382Z,49.37
2016-08-15T10:33:13.372Z,49.46
2016-08-15T10:34:13.348Z,50.62
2016-08-15T10:35:13.339Z,49.84
2016-08-15T10:36:13.320Z,49.94
2016-08-15T10:37:13.304Z,48.97
2016-08-15T10:38:13.287Z,48.59
2016-08-15T10:39:13.928Z,48.59
2016-08-15T10:40:13.258Z,48.79
2016-08-15T10:41:13.234Z,48.49
2016-08-15T10:42:13.231Z,49.07
2016-08-15T10:43:12.501Z,48.88
2016-08-15T10:44:13.188Z,48.49
2016-08-15T10:45:13.166Z,48.21
2016-08-15T10:46:13.154Z,47.44
2016-08-15T10:47:13.144Z,47.72
2016-08-15T10:48:13.141Z,47.34
2016-08-15T10:49:13.115Z,47.75
2016-08-15T10:50:13.118Z,47.44
2016-08-15T10:51:13.070Z,48.21
2016-08-15T10:52:13.055Z,48.49
2016-08-15T10:53:13.045Z,48.21
2016-08-15T10:54:13.018Z,48.01
2016-08-15T10:55:13.017Z,48.69
2016-08-15T10:56:12.990Z,49.55
2016-08-15T10:57:12.973Z,49.55
2016-08-15T10:58:12.966Z,49.17
2016-08-15T10:59:12.940Z,48.49
2016-08-15T11:00:12.927Z,48.23
2016-08-15T11:01:12.908Z,47.82
2016-08-15T11:02:12.911Z,47.55
2016-08-15T11:03:12.874Z,47.85
2016-08-15T11:04:12.862Z,48.71
2016-08-15T11:05:12.843Z,48.23
2016-08-15T11:06:12.826Z,47.36
2016-08-15T11:07:12.818Z,47.92
2016-08-15T11:08:12.801Z,47.34
2016-08-15T11:09:12.777Z,47.17
2016-08-15T11:10:12.763Z,47.36
2016-08-15T11:11:12.747Z,47.45
2016-08-15T11:12:12.022Z,47.44
2016-08-15T11:13:12.715Z,47.72
2016-08-15T11:14:12.696Z,48.4
2016-08-15T11:15:12.680Z,48.01
2016-08-15T11:16:12.663Z,48.59
2016-08-15T11:17:12.646Z,48.69
2016-08-15T11:18:12.628Z,48.69
2016-08-15T11:19:12.611Z,48.69
2016-08-15T11:20:11.896Z,47.63
2016-08-15T11:21:12.583Z,47.92
2016-08-15T11:22:12.561Z,47.82
2016-08-15T11:23:12.549Z,47.72
2016-08-15T11:24:12.534Z,48.69
2016-08-15T11:25:12.518Z,48.59
2016-08-15T11:26:12.498Z,48.49
2016-08-15T11:27:12.578Z,48.3
2016-08-15T11:28:12.468Z,48.69
2016-08-15T11:29:12.448Z,48.49
2016-08-15T11:30:12.442Z,48.69
2016-08-15T11:31:12.417Z,49.27
2016-08-15T11:32:12.398Z,49.37
2016-08-15T11:33:12.380Z,48.69
2016-08-15T11:34:12.368Z,47.72
2016-08-15T11:35:12.352Z,47.24
2016-08-15T11:36:12.330Z,46.37
2016-08-15T11:37:12.320Z,46.28
2016-08-15T11:38:12.300Z,46.37
2016-08-15T11:39:12.290Z,46.37
2016-08-15T11:40:12.273Z,46.86
2016-08-15T11:41:12.256Z,46.28
2016-08-15T11:42:12.233Z,47.44
2016-08-15T11:43:12.220Z,47.44
2016-08-15T11:44:12.205Z,47.34
2016-08-15T11:45:12.188Z,47.34
2016-08-15T11:46:12.169Z,47.34
2016-08-15T11:47:12.155Z,47.14
2016-08-15T11:48:12.138Z,47.14
2016-08-15T11:49:12.121Z,46.2
2016-08-15T11:50:12.102Z,46.95
2016-08-15T11:51:12.087Z,46.97
2016-08-15T11:52:12.077Z,47.27
2016-08-15T11:53:12.052Z,47.36
2016-08-15T11:54:12.037Z,47.27
2016-08-15T11:55:12.020Z,47.36
2016-08-15T11:56:12.009Z,47.36
2016-08-15T11:57:11.991Z,46.11
2016-08-15T11:58:11.969Z,45.89
2016-08-15T11:59:11.955Z,45.62
2016-08-15T12:00:11.236Z,45.7
2016-08-15T12:01:11.926Z,45.6
2016-08-15T12:02:11.907Z,45.99
2016-08-15T12:03:11.892Z,45.41
2016-08-15T12:04:11.880Z,45.12
2016-08-15T12:05:11.856Z,45.12
2016-08-15T12:06:11.840Z,44.54
2016-08-15T12:07:11.830Z,44.83
2016-08-15T12:08:11.813Z,45.31
2016-08-15T12:09:11.801Z,44.64
2016-08-15T12:10:11.773Z,44.27
2016-08-15T12:11:11.756Z,44.45
2016-08-15T12:12:11.739Z,45.03
2016-08-15T12:13:11.724Z,45.41
2016-08-15T12:14:11.706Z,45.12
2016-08-15T12:15:11.693Z,45.14
2016-08-15T12:16:11.678Z,45.12
2016-08-15T12:17:11.656Z,45.34
2016-08-15T12:18:11.645Z,45.53
2016-08-15T12:19:11.629Z,45.24
2016-08-15T12:20:11.619Z,45.62
2016-08-15T12:21:11.596Z,45.43
2016-08-15T12:22:10.871Z,45.43
2016-08-15T12:23:11.562Z,45.14
2016-08-15T12:24:11.540Z,44.95
2016-08-15T12:25:10.824Z,44.46
2016-08-15T12:26:11.516Z,44.18
2016-08-15T12:27:11.494Z,44.27
2016-08-15T12:28:11.480Z,44.76
2016-08-15T12:29:11.463Z,44.56
2016-08-15T12:30:11.461Z,44.18
2016-08-15T12:31:11.426Z,44.18
2016-08-15T12:32:11.415Z,44.18
2016-08-15T12:33:11.398Z,43.89
2016-08-15T12:34:11.387Z,43.79
2016-08-15T12:35:11.379Z,44.08
2016-08-15T12:36:11.343Z,44.08
2016-08-15T12:37:11.338Z,43.77
2016-08-15T12:38:11.312Z,44.15
2016-08-15T12:39:11.305Z,44.66
2016-08-15T12:40:11.286Z,45.12
2016-08-15T12:41:11.262Z,45.21
2016-08-15T12:42:11.249Z,45.41
2016-08-15T12:43:11.235Z,45.82
2016-08-15T12:44:11.217Z,45.89
2016-08-15T12:45:11.201Z,45.89
2016-08-15T12:46:11.199Z,46.47
2016-08-15T12:47:11.376Z,45.92
2016-08-15T12:48:11.156Z,46.28
2016-08-15T12:49:11.131Z,46.3
2016-08-15T12:50:11.121Z,45.99
2016-08-15T12:51:11.102Z,46.2
2016-08-15T12:52:10.374Z,46.11
2016-08-15T12:53:11.076Z,46.01
2016-08-15T12:54:11.062Z,46.3
2016-08-15T12:55:11.054Z,46.69